Time;durP1;ratioP1;P1;durP2;ratioP2;P2;SDS_P1;SDS_P2;PMS_P1;PMS_P2;Temp;Humidity;BMP_temperature;BMP_pressure;BME280_temperature;BME280_humidity;BME280_pressure;Samples;Min_cycle;Max_cycle;Signal;HPM_P1;HPM_P2
2023/10/16 00:02:13;;;;;;;6.53;4.68;;;28.00;99.90;;;;;;5032880;28;20410;-53
2023/10/16 00:04:46;;;;;;;5.53;4.00;;;28.00;99.90;;;;;;5032002;28;20482;-54
2023/10/16 00:07:19;;;;;;;4.97;3.83;;;28.00;99.90;;;;;;5032022;28;20101;-54
2023/10/16 00:09:45;;;;;;;5.10;4.13;;;28.00;99.90;;;;;;5032222;28;20358;-53
2023/10/16 00:12:11;;;;;;;7.25;4.50;;;28.00;99.90;;;;;;5032081;28;20017;-54
2023/10/16 00:14:37;;;;;;;5.78;4.47;;;28.00;99.90;;;;;;5031916;28;20064;-53
2023/10/16 00:17:08;;;;;;;4.63;3.85;;;28.00;99.90;;;;;;5014519;28;20022;-53
2023/10/16 00:19:39;;;;;;;5.25;4.35;;;28.00;99.90;;;;;;5031994;28;20018;-54
2023/10/16 00:22:39;;;;;;;6.50;4.53;;;28.00;99.90;;;;;;5031980;28;20063;-54
2023/10/16 00:24:58;;;;;;;4.72;3.55;;;28.00;99.90;;;;;;5027724;28;20375;-53
2023/10/16 00:27:24;;;;;;;6.43;4.10;;;28.00;99.90;;;;;;5031984;28;20033;-53
2023/10/16 00:29:50;;;;;;;5.13;4.13;;;27.90;99.90;;;;;;5031856;28;20044;-55
2023/10/16 00:32:16;;;;;;;6.57;3.70;;;28.00;99.90;;;;;;5032033;28;20022;-53
2023/10/16 00:34:42;;;;;;;4.85;3.60;;;28.00;99.90;;;;;;5031799;28;20457;-54
2023/10/16 00:37:10;;;;;;;5.05;4.13;;;28.00;99.90;;;;;;5032019;28;20075;-53
2023/10/16 00:39:37;;;;;;;5.93;3.97;;;27.90;99.90;;;;;;5031846;28;20022;-54
2023/10/16 00:42:08;;;;;;;4.93;4.30;;;28.00;99.90;;;;;;5031856;28;20108;-54
2023/10/16 00:44:34;;;;;;;5.35;3.88;;;27.90;99.90;;;;;;5031598;28;20025;-54
2023/10/16 00:47:04;;;;;;;6.20;3.95;;;27.90;99.90;;;;;;5033993;28;20041;-54
2023/10/16 00:49:34;;;;;;;6.75;4.35;;;27.90;99.90;;;;;;5035454;28;20072;-53
2023/10/16 00:52:00;;;;;;;5.35;4.13;;;27.90;99.90;;;;;;5035418;28;20477;-54
2023/10/16 00:54:28;;;;;;;5.55;3.80;;;27.90;99.90;;;;;;5035393;28;20394;-54
2023/10/16 00:57:04;;;;;;;6.18;3.95;;;27.90;99.90;;;;;;5035392;28;20102;-53
2023/10/16 00:59:31;;;;;;;7.63;4.53;;;27.90;99.90;;;;;;5035240;28;20044;-53
2023/10/16 01:04:36;;;;;;;5.40;3.88;;;27.90;99.90;;;;;;5055225;28;19913;-44
2023/10/16 01:07:02;;;;;;;8.38;3.90;;;27.90;99.90;;;;;;5055249;28;20025;-45
2023/10/16 01:09:35;;;;;;;4.65;3.97;;;27.90;99.90;;;;;;5055073;28;20108;-45
2023/10/16 01:12:11;;;;;;;4.78;3.63;;;27.90;99.90;;;;;;5054932;28;20496;-45
2023/10/16 01:14:38;;;;;;;5.78;4.60;;;27.80;99.90;;;;;;5054886;28;20038;-44
2023/10/16 01:17:14;;;;;;;4.60;3.90;;;27.80;99.90;;;;;;5037174;28;20018;-45
2023/10/16 01:19:44;;;;;;;7.10;3.72;;;27.80;99.90;;;;;;5054850;28;20033;-45
2023/10/16 01:22:13;;;;;;;3.88;3.45;;;27.80;99.90;;;;;;5036806;28;20021;-45
2023/10/16 01:24:43;;;;;;;4.38;3.83;;;27.80;99.90;;;;;;5054676;28;20056;-45
2023/10/16 01:27:14;;;;;;;6.00;4.43;;;27.80;99.90;;;;;;5054730;28;20031;-45
2023/10/16 01:29:40;;;;;;;5.88;3.80;;;27.80;99.90;;;;;;5054675;28;20096;-45
2023/10/16 01:32:07;;;;;;;5.35;4.10;;;27.70;99.90;;;;;;5054665;28;20469;-45
2023/10/16 01:34:34;;;;;;;6.53;3.63;;;27.80;99.90;;;;;;5054577;28;20028;-45
2023/10/16 01:37:08;;;;;;;6.30;4.07;;;27.70;99.90;;;;;;5054621;28;20726;-45
2023/10/16 01:39:53;;;;;;;5.03;3.83;;;27.70;99.90;;;;;;5054525;28;20092;-45
2023/10/16 01:42:19;;;;;;;5.38;3.70;;;27.80;99.90;;;;;;5054569;28;20053;-45
2023/10/16 01:44:45;;;;;;;6.03;3.95;;;27.70;99.90;;;;;;5054417;28;20482;-45
2023/10/16 01:47:18;;;;;;;5.78;3.70;;;27.70;99.90;;;;;;5054302;28;20116;-46
2023/10/16 01:49:50;;;;;;;5.30;3.90;;;27.70;99.90;;;;;;5054364;28;20512;-46
2023/10/16 01:52:16;;;;;;;5.47;3.63;;;27.70;99.90;;;;;;5054292;28;20132;-46
2023/10/16 01:54:45;;;;;;;5.25;3.55;;;27.70;99.90;;;;;;5036221;28;20048;-46
2023/10/16 01:57:12;;;;;;;6.95;3.67;;;27.70;99.90;;;;;;5053912;28;20029;-46
2023/10/16 01:59:45;;;;;;;5.82;3.63;;;27.70;99.90;;;;;;5054110;28;20108;-46
2023/10/16 02:02:12;;;;;;;4.50;3.00;;;27.70;99.90;;;;;;5065770;23;20052;-53
2023/10/16 02:04:39;;;;;;;5.05;3.95;;;27.70;99.90;;;;;;5053926;28;20032;-54
2023/10/16 02:07:09;;;;;;;5.23;3.80;;;27.70;99.90;;;;;;5054005;28;20056;-53
2023/10/16 02:09:38;;;;;;;5.35;3.88;;;27.60;99.90;;;;;;5053904;28;20013;-54
2023/10/16 02:12:14;;;;;;;5.13;3.92;;;27.70;99.90;;;;;;5035845;28;20025;-54
2023/10/16 02:14:40;;;;;;;4.32;3.50;;;27.60;99.90;;;;;;5053865;28;20021;-54
2023/10/16 02:17:30;;;;;;;4.53;3.75;;;27.70;99.90;;;;;;5053806;28;20021;-54
2023/10/16 02:19:55;;;;;;;3.95;3.55;;;27.60;99.90;;;;;;5053053;28;20036;-54
2023/10/16 02:22:22;;;;;;;6.05;3.60;;;27.60;99.90;;;;;;5053905;28;20029;-54
2023/10/16 02:24:49;;;;;;;4.35;3.95;;;27.60;99.90;;;;;;5053487;28;20021;-53
2023/10/16 02:27:18;;;;;;;5.60;4.30;;;27.60;99.90;;;;;;5053567;28;20037;-54
2023/10/16 02:29:53;;;;;;;6.35;3.65;;;27.60;99.90;;;;;;5053555;28;20059;-53
2023/10/16 02:32:20;;;;;;;5.22;3.92;;;27.60;99.90;;;;;;5053531;28;20107;-54
2023/10/16 02:34:49;;;;;;;;;;;27.60;99.90;;;;;;5053879;28;20016;-53
2023/10/16 02:37:16;;;;;;;6.10;4.07;;;27.60;99.90;;;;;;5053293;28;19905;-53
2023/10/16 02:39:46;;;;;;;6.05;4.40;;;27.60;99.90;;;;;;5053496;28;20029;-54
2023/10/16 02:42:14;;;;;;;6.57;3.78;;;27.60;99.90;;;;;;5053235;28;20048;-54
2023/10/16 02:44:42;;;;;;;;;;;27.60;99.90;;;;;;5053558;28;20060;-53
2023/10/16 02:47:13;;;;;;;5.32;3.88;;;27.50;99.90;;;;;;5053207;28;20280;-53
2023/10/16 02:49:47;;;;;;;5.05;3.83;;;27.60;99.90;;;;;;5053167;28;20071;-53
2023/10/16 02:52:16;;;;;;;7.53;3.65;;;27.50;99.90;;;;;;5035275;28;20051;-53
2023/10/16 02:54:41;;;;;;;5.47;3.60;;;27.50;99.90;;;;;;5035562;28;20017;-53
2023/10/16 02:57:10;;;;;;;5.93;3.88;;;27.50;99.90;;;;;;5053000;28;20025;-54
2023/10/16 02:59:39;;;;;;;4.85;3.38;;;27.50;99.90;;;;;;5052869;28;20024;-54
2023/10/16 03:02:14;;;;;;;5.18;3.50;;;27.50;99.90;;;;;;5065095;23;20045;-51
2023/10/16 03:04:40;;;;;;;5.63;3.63;;;27.50;99.90;;;;;;5052773;28;20469;-51
2023/10/16 03:07:07;;;;;;;4.32;3.55;;;27.50;99.90;;;;;;5052864;28;20457;-51
2023/10/16 03:09:33;;;;;;;4.93;3.53;;;27.50;99.90;;;;;;5052073;28;20146;-51
2023/10/16 03:12:08;;;;;;;5.30;4.00;;;27.50;99.90;;;;;;5052735;28;20579;-51
2023/10/16 03:14:45;;;;;;;4.72;3.80;;;27.50;99.90;;;;;;5052594;28;20028;-51
2023/10/16 03:17:34;;;;;;;6.18;3.58;;;27.50;99.90;;;;;;5052639;28;20463;-51
2023/10/16 03:20:06;;;;;;;4.72;3.70;;;27.50;99.90;;;;;;5052625;28;20092;-51
2023/10/16 03:22:32;;;;;;;7.25;4.28;;;27.50;99.90;;;;;;5034620;28;20481;-51
2023/10/16 03:24:59;;;;;;;5.43;3.92;;;27.50;99.90;;;;;;5052428;28;20504;-51
2023/10/16 03:27:32;;;;;;;4.50;3.53;;;27.40;99.90;;;;;;5052641;28;20039;-51
2023/10/16 03:29:58;;;;;;;6.78;3.85;;;27.40;99.90;;;;;;5052560;28;20025;-49
2023/10/16 03:32:24;;;;;;;4.68;3.50;;;27.40;99.90;;;;;;5052482;28;20020;-50
2023/10/16 03:34:51;;;;;;;4.60;3.47;;;27.40;99.90;;;;;;5052360;28;20096;-50
2023/10/16 03:37:22;;;;;;;4.87;3.27;;;27.40;99.90;;;;;;5034356;28;20056;-51
2023/10/16 03:39:56;;;;;;;4.20;3.20;;;27.50;99.90;;;;;;5052355;28;20136;-50
2023/10/16 03:42:23;;;;;;;4.95;3.72;;;27.40;99.90;;;;;;5052261;28;20031;-50
2023/10/16 03:44:49;;;;;;;4.85;3.88;;;27.40;99.90;;;;;;5052220;28;20033;-50
2023/10/16 03:47:15;;;;;;;4.72;3.42;;;27.40;99.90;;;;;;5052206;28;20029;-50
2023/10/16 03:49:41;;;;;;;4.30;3.30;;;27.40;99.90;;;;;;5052072;28;20366;-50
2023/10/16 03:52:11;;;;;;;5.70;3.65;;;27.40;99.90;;;;;;5052101;28;20108;-50
2023/10/16 03:54:39;;;;;;;3.97;3.28;;;27.40;99.90;;;;;;5052185;28;20028;-51
2023/10/16 03:57:09;;;;;;;4.95;3.40;;;27.40;99.90;;;;;;5052170;28;20087;-50
2023/10/16 03:59:38;;;;;;;7.97;3.97;;;27.40;99.90;;;;;;5052127;28;20021;-50
2023/10/16 04:02:05;;;;;;;6.10;3.70;;;27.40;99.90;;;;;;5052451;28;20107;-50
2023/10/16 04:04:32;;;;;;;4.65;3.20;;;27.40;99.90;;;;;;5051984;28;20031;-50
2023/10/16 04:06:58;;;;;;;4.20;3.33;;;27.40;99.90;;;;;;5052207;28;20087;-50
2023/10/16 04:09:29;;;;;;;5.28;3.15;;;27.40;99.90;;;;;;5051998;28;20505;-50
2023/10/16 04:11:56;;;;;;;5.60;3.30;;;27.40;99.90;;;;;;5052191;28;20060;-50
2023/10/16 04:14:44;;;;;;;5.28;3.75;;;27.40;99.90;;;;;;5051993;28;20021;-50
2023/10/16 04:17:13;;;;;;;6.80;3.60;;;27.30;99.90;;;;;;5051439;28;20424;-51
2023/10/16 04:22:44;;;;;;;4.15;3.10;;;27.40;99.90;;;;;;5039893;28;20037;-51
2023/10/16 04:25:19;;;;;;;4.07;3.25;;;27.30;99.90;;;;;;5055778;28;20612;-51
2023/10/16 04:27:45;;;;;;;7.15;3.28;;;27.30;99.90;;;;;;5039341;28;20029;-51
2023/10/16 04:38:31;;;;;;;5.70;3.55;;;27.30;99.90;;;;;;5013822;28;20032;-49
2023/10/16 04:44:23;;;;;;;5.95;3.17;;;27.30;99.90;;;;;;5055852;28;20032;-49
2023/10/16 04:46:55;;;;;;;4.65;3.20;;;27.30;99.90;;;;;;5044719;28;20521;-50
2023/10/16 04:49:16;;;;;;;6.20;3.45;;;27.20;99.90;;;;;;5055273;28;20028;-50
2023/10/16 04:51:52;;;;;;;5.88;3.92;;;27.20;99.90;;;;;;5055301;28;20099;-50
2023/10/16 04:54:27;;;;;;;4.53;3.30;;;27.20;99.90;;;;;;5055299;28;20063;-50
2023/10/16 04:59:37;;;;;;;6.20;3.53;;;27.20;99.90;;;;;;5055181;28;20384;-50
2023/10/16 05:03:21;;;;;;;4.38;3.10;;;27.20;99.90;;;;;;5055126;28;20141;-51
2023/10/16 05:07:53;;;;;;;3.60;2.78;;;27.20;99.90;;;;;;5055276;28;20032;-51
2023/10/16 05:13:39;;;;;;;;;;;27.10;99.90;;;;;;5055329;28;20032;-51
2023/10/16 06:16:20;;;;;;;5.20;2.63;;;27.00;99.90;;;;;;5053767;28;20056;-51
2023/10/16 06:18:47;;;;;;;3.67;2.97;;;27.00;99.90;;;;;;5036135;28;20111;-51
2023/10/16 06:21:14;;;;;;;3.88;2.72;;;27.00;99.90;;;;;;5053675;28;20032;-51
2023/10/16 06:23:49;;;;;;;3.08;2.53;;;27.00;99.90;;;;;;5053661;28;20076;-51
2023/10/16 06:26:16;;;;;;;4.05;2.92;;;27.00;99.90;;;;;;5053464;28;20069;-51
2023/10/16 06:28:49;;;;;;;3.23;2.50;;;27.00;99.90;;;;;;5053579;28;20025;-51
2023/10/16 06:31:24;;;;;;;4.72;2.33;;;27.00;99.90;;;;;;5053454;28;20094;-51
2023/10/16 06:33:56;;;;;;;6.07;2.58;;;27.00;99.90;;;;;;5035459;28;20560;-51
2023/10/16 06:36:23;;;;;;;5.88;2.85;;;27.00;99.90;;;;;;5053350;28;20393;-52
2023/10/16 06:38:53;;;;;;;13.23;3.78;;;27.00;99.90;;;;;;5053292;28;20021;-51
2023/10/16 06:41:22;;;;;;;4.97;2.55;;;27.00;99.90;;;;;;5053421;28;20095;-51
2023/10/16 06:43:51;;;;;;;4.55;2.38;;;27.00;99.90;;;;;;5052182;28;20036;-50
2023/10/16 06:46:25;;;;;;;5.30;2.78;;;27.00;99.90;;;;;;5053026;28;20039;-51
2023/10/16 06:48:52;;;;;;;4.05;2.55;;;27.00;99.90;;;;;;5053179;28;20025;-50
2023/10/16 06:51:25;;;;;;;4.28;2.95;;;27.00;99.90;;;;;;5053129;28;20438;-50
2023/10/16 06:53:53;;;;;;;4.78;2.78;;;27.00;99.90;;;;;;5053068;28;20033;-50
2023/10/16 06:56:31;;;;;;;5.53;2.03;;;27.00;99.90;;;;;;5052982;28;20067;-51
2023/10/16 06:58:57;;;;;;;;;;;27.00;99.90;;;;;;5053393;28;20056;-50
2023/10/16 07:01:25;;;;;;;5.43;3.22;;;27.00;99.90;;;;;;5052724;28;19960;-50
2023/10/16 07:03:54;;;;;;;3.75;2.47;;;27.00;99.90;;;;;;5052803;28;20162;-51
2023/10/16 07:06:32;;;;;;;4.40;2.40;;;27.00;99.90;;;;;;5052648;28;20033;-51
2023/10/16 07:09:03;;;;;;;3.15;2.20;;;27.00;99.90;;;;;;5052683;28;20108;-51
2023/10/16 07:11:30;;;;;;;3.47;2.22;;;27.00;99.90;;;;;;5052676;28;20027;-51
2023/10/16 07:13:56;;;;;;;4.77;2.63;;;27.00;99.90;;;;;;5052733;28;20436;-51
2023/10/16 07:16:22;;;;;;;3.60;2.55;;;27.00;99.90;;;;;;5052461;28;20096;-51
2023/10/16 07:18:53;;;;;;;5.17;2.20;;;27.10;99.90;;;;;;5052726;28;20021;-51
2023/10/16 07:21:20;;;;;;;3.80;2.55;;;27.10;99.90;;;;;;5052597;28;20025;-51
2023/10/16 07:23:46;;;;;;;4.78;2.33;;;27.10;99.90;;;;;;5052558;28;20021;-51
2023/10/16 07:26:24;;;;;;;4.03;2.42;;;27.10;99.90;;;;;;5052272;28;20037;-51
2023/10/16 07:28:50;;;;;;;3.88;2.30;;;27.20;99.90;;;;;;5052316;28;20017;-51
2023/10/16 07:31:16;;;;;;;3.13;2.25;;;27.20;99.90;;;;;;5052438;28;20032;-51
2023/10/16 07:33:50;;;;;;;3.63;2.47;;;27.20;99.90;;;;;;5052298;28;20021;-51
2023/10/16 07:36:17;;;;;;;3.63;2.30;;;27.30;99.90;;;;;;5052328;28;20048;-50
2023/10/16 07:38:44;;;;;;;;;;;27.20;99.90;;;;;;5052719;28;20025;-50
2023/10/16 07:41:13;;;;;;;4.20;2.45;;;27.20;99.90;;;;;;5052401;28;19962;-50
2023/10/16 07:43:39;;;;;;;4.05;2.28;;;27.20;99.90;;;;;;5052537;28;20025;-50
2023/10/16 07:48:41;;;;;;;4.47;1.95;;;27.30;99.90;;;;;;5052453;28;20539;-50
2023/10/16 07:51:08;;;;;;;7.35;2.72;;;27.30;99.90;;;;;;5052323;28;20057;-51
2023/10/16 07:53:35;;;;;;;3.57;2.07;;;27.30;99.90;;;;;;5052232;28;20121;-51
2023/10/16 07:56:02;;;;;;;4.53;1.92;;;27.30;99.90;;;;;;5051631;28;20025;-51
2023/10/16 07:58:35;;;;;;;2.80;2.05;;;27.30;99.90;;;;;;5052009;28;20025;-51
2023/10/16 08:03:36;;;;;;;4.65;2.45;;;27.30;99.90;;;;;;5052078;28;20028;-51
2023/10/16 08:06:05;;;;;;;4.43;2.55;;;27.40;99.90;;;;;;5051986;28;20048;-51
2023/10/16 08:08:36;;;;;;;2.90;2.08;;;27.40;99.90;;;;;;5051988;28;20017;-51
2023/10/16 08:11:12;;;;;;;3.05;2.15;;;27.40;99.90;;;;;;5051897;28;20025;-51
2023/10/16 08:13:46;;;;;;;3.53;2.28;;;27.40;99.90;;;;;;5052037;28;20465;-51
2023/10/16 08:16:21;;;;;;;3.55;2.22;;;27.40;99.90;;;;;;5052056;28;20047;-51
2023/10/16 08:18:52;;;;;;;3.40;2.65;;;27.40;99.90;;;;;;5034219;28;20568;-50
2023/10/16 08:21:25;;;;;;;4.85;2.88;;;27.40;99.90;;;;;;5051968;28;20025;-51
2023/10/16 08:23:57;;;;;;;4.97;2.97;;;27.50;99.90;;;;;;5051919;28;20107;-51
2023/10/16 08:26:30;;;;;;;4.75;2.78;;;27.50;99.90;;;;;;5051797;28;20044;-50
2023/10/16 08:29:17;;;;;;;3.67;2.50;;;27.50;99.90;;;;;;5051811;28;20038;-51
2023/10/16 08:31:44;;;;;;;;;;;27.50;99.90;;;;;;5052455;28;20496;-50
2023/10/16 08:34:21;;;;;;;4.72;2.42;;;27.50;99.90;;;;;;5052012;28;19911;-50
2023/10/16 08:36:50;;;;;;;5.25;2.60;;;27.50;99.90;;;;;;5051760;28;20051;-50
2023/10/16 08:39:19;;;;;;;3.25;2.15;;;27.50;99.90;;;;;;5051799;28;20036;-51
2023/10/16 08:41:51;;;;;;;4.28;2.22;;;27.50;99.90;;;;;;5033701;28;20024;-50
2023/10/16 08:44:18;;;;;;;3.50;2.40;;;27.50;99.90;;;;;;5051640;28;20512;-50
2023/10/16 08:46:45;;;;;;;5.47;2.40;;;27.60;99.90;;;;;;5034135;28;20041;-50
2023/10/16 08:49:11;;;;;;;2.85;2.00;;;27.60;99.90;;;;;;5051823;28;20036;-51
2023/10/16 08:51:38;;;;;;;3.67;1.90;;;27.60;99.90;;;;;;5051562;28;20508;-50
2023/10/16 08:54:05;;;;;;;3.28;1.90;;;27.60;99.90;;;;;;5051810;28;20496;-50
2023/10/16 08:56:32;;;;;;;5.00;2.43;;;27.60;99.90;;;;;;5051558;28;20040;-50
2023/10/16 08:59:01;;;;;;;3.78;2.63;;;27.60;99.90;;;;;;5051569;28;20250;-50
2023/10/16 09:01:28;;;;;;;4.53;2.38;;;27.60;99.90;;;;;;5051219;28;20049;-49
2023/10/16 09:04:05;;;;;;;5.47;2.22;;;27.70;99.90;;;;;;5051581;28;20143;-50
2023/10/16 09:06:37;;;;;;;5.07;2.25;;;27.70;99.90;;;;;;5034066;28;20033;-50
2023/10/16 09:09:12;;;;;;;3.58;2.53;;;27.70;99.90;;;;;;5054981;28;20018;-50
2023/10/16 09:11:39;;;;;;;6.57;2.45;;;27.70;99.90;;;;;;5054974;28;20032;-51
2023/10/16 09:14:07;;;;;;;5.35;2.80;;;27.80;99.90;;;;;;5054867;28;20014;-51
2023/10/16 09:16:34;;;;;;;2.78;2.20;;;27.70;99.90;;;;;;5054905;28;20031;-51
2023/10/16 09:19:06;;;;;;;4.40;2.55;;;27.80;99.90;;;;;;5054689;28;20548;-50
2023/10/16 09:21:38;;;;;;;6.05;2.10;;;27.80;99.90;;;;;;5054636;28;20029;-51
2023/10/16 09:24:06;;;;;;;3.65;2.22;;;27.80;99.90;;;;;;5054783;28;20044;-51
2023/10/16 09:26:38;;;;;;;3.67;2.22;;;27.80;99.90;;;;;;5036715;28;20090;-51
2023/10/16 09:32:02;;;;;;;3.25;2.15;;;27.90;99.90;;;;;;5045374;28;20033;-51
2023/10/16 09:34:28;;;;;;;3.92;1.88;;;27.90;99.90;;;;;;5054788;28;20032;-51
2023/10/16 09:39:46;;;;;;;4.22;2.22;;;27.90;99.90;;;;;;5055183;28;20040;-51
2023/10/16 09:42:14;;;;;;;3.00;1.90;;;27.90;99.90;;;;;;5053034;28;20025;-51
2023/10/16 09:47:30;;;;;;;3.22;1.92;;;28.00;99.90;;;;;;5054500;28;20036;-51
2023/10/16 09:50:01;;;;;;;3.20;1.90;;;28.00;99.90;;;;;;5054382;28;20044;-51
2023/10/16 09:52:33;;;;;;;3.72;2.10;;;28.00;99.90;;;;;;5054206;28;20032;-51
2023/10/16 09:54:59;;;;;;;2.78;2.00;;;28.00;99.90;;;;;;5054032;28;20025;-51
2023/10/16 09:57:30;;;;;;;3.90;2.17;;;28.10;99.90;;;;;;5036288;28;20017;-51
2023/10/16 10:00:09;;;;;;;2.70;1.77;;;28.10;99.90;;;;;;5054040;28;20039;-51
2023/10/16 10:02:39;;;;;;;4.88;2.00;;;28.10;99.90;;;;;;5053887;28;20110;-51
2023/10/16 10:05:10;;;;;;;2.30;1.95;;;28.20;99.90;;;;;;5053402;28;20179;-51
2023/10/16 10:07:46;;;;;;;3.28;2.20;;;28.20;99.90;;;;;;5053725;28;20082;-51
2023/10/16 10:13:09;;;;;;;3.83;2.00;;;28.20;99.90;;;;;;5053613;28;20033;-50
2023/10/16 10:15:39;;;;;;;5.43;2.10;;;28.30;99.90;;;;;;5053727;28;20013;-50
2023/10/16 10:21:27;;;;;;;6.38;2.35;;;28.30;99.90;;;;;;5011715;28;20494;-50
2023/10/16 10:24:00;;;;;;;3.22;1.63;;;28.30;99.90;;;;;;5011693;28;20133;-50
2023/10/16 10:26:27;;;;;;;4.82;2.10;;;28.40;99.90;;;;;;5037420;28;20069;-50
2023/10/16 10:29:16;;;;;;;2.40;1.98;;;28.40;99.90;;;;;;5053502;28;20017;-51
2023/10/16 10:31:45;;;;;;;6.57;2.47;;;28.40;99.90;;;;;;5053385;28;20087;-51
2023/10/16 10:34:22;;;;;;;3.83;2.60;;;28.40;99.90;;;;;;5035432;28;20029;-50
2023/10/16 10:36:53;;;;;;;5.50;3.00;;;28.40;99.90;;;;;;5053566;28;20021;-51
2023/10/16 10:39:21;;;;;;;4.35;3.50;;;28.50;99.90;;;;;;5053543;28;20067;-50
2023/10/16 10:41:51;;;;;;;7.18;3.38;;;28.50;99.90;;;;;;5053420;28;20033;-50
2023/10/16 10:44:21;;;;;;;5.32;3.58;;;28.50;99.90;;;;;;5053324;28;20025;-51
2023/10/16 10:46:53;;;;;;;7.40;4.57;;;28.50;99.90;;;;;;5035264;28;20028;-50
2023/10/16 10:49:33;;;;;;;7.65;4.22;;;28.50;99.90;;;;;;5053378;28;20096;-50
2023/10/16 10:52:12;;;;;;;6.72;4.25;;;28.50;99.90;;;;;;5052985;28;20086;-51
2023/10/16 10:54:44;;;;;;;5.25;4.20;;;28.60;99.90;;;;;;5053065;28;20092;-50
2023/10/16 10:57:22;;;;;;;5.90;4.28;;;28.60;99.90;;;;;;5052917;28;20487;-49
2023/10/16 10:59:54;;;;;;;6.15;4.40;;;28.60;99.90;;;;;;5053067;28;20025;-50
2023/10/16 11:02:36;;;;;;;6.70;4.05;;;28.60;99.90;;;;;;5034736;28;20057;-50
2023/10/16 11:05:22;;;;;;;6.35;4.45;;;28.70;99.90;;;;;;5052580;28;20429;-50
2023/10/16 11:10:33;;;;;;;8.85;4.88;;;28.70;99.90;;;;;;5052891;28;20055;-50
2023/10/16 11:13:04;;;;;;;5.18;3.67;;;28.70;99.90;;;;;;5052628;28;20021;-50
2023/10/16 11:15:30;;;;;;;6.07;4.20;;;28.80;99.90;;;;;;5034735;28;20032;-50
2023/10/16 11:18:05;;;;;;;8.95;3.75;;;28.80;99.90;;;;;;5052504;28;20017;-50
2023/10/16 11:20:32;;;;;;;4.70;3.90;;;28.80;99.90;;;;;;5052509;28;20036;-50
2023/10/16 11:22:58;;;;;;;6.78;4.25;;;28.80;99.90;;;;;;5052614;28;20023;-49
2023/10/16 11:25:28;;;;;;;5.63;4.60;;;28.90;99.90;;;;;;5052359;28;20448;-50
2023/10/16 11:27:58;;;;;;;6.28;4.30;;;28.90;99.90;;;;;;5052390;28;20253;-50
2023/10/16 11:30:28;;;;;;;5.63;4.57;;;28.90;99.90;;;;;;5051698;28;20473;-51
2023/10/16 11:32:54;;;;;;;6.82;3.83;;;29.00;99.90;;;;;;5052358;28;20025;-51
2023/10/16 11:35:21;;;;;;;7.07;4.30;;;28.90;99.90;;;;;;5052488;28;20430;-51
2023/10/16 11:37:59;;;;;;;6.18;3.55;;;29.00;99.90;;;;;;5052276;28;20055;-51
2023/10/16 11:40:33;;;;;;;4.50;3.50;;;29.00;99.90;;;;;;5052346;28;20067;-51
2023/10/16 11:43:02;;;;;;;5.38;4.22;;;29.00;99.90;;;;;;5052100;28;20021;-51
2023/10/16 11:45:32;;;;;;;6.93;3.88;;;29.00;99.90;;;;;;5052143;28;20029;-51
2023/10/16 11:51:16;;;;;;;;;;;29.10;99.90;;;;;;5039334;28;20045;-51
2023/10/16 11:53:45;;;;;;;6.65;3.92;;;29.10;99.90;;;;;;5052127;28;19912;-51
2023/10/16 11:56:13;;;;;;;5.32;3.80;;;29.10;99.90;;;;;;5052068;28;20025;-51
2023/10/16 11:58:41;;;;;;;6.13;3.53;;;29.10;99.90;;;;;;5052094;28;20025;-51
2023/10/16 12:01:11;;;;;;;6.32;3.67;;;29.10;99.90;;;;;;5051877;28;20436;-51
2023/10/16 12:03:38;;;;;;;4.40;3.67;;;29.10;99.90;;;;;;5052098;28;20428;-51
2023/10/16 12:06:09;;;;;;;3.95;3.22;;;29.20;99.90;;;;;;5051894;28;20377;-51
2023/10/16 12:08:37;;;;;;;5.47;3.60;;;29.20;99.90;;;;;;5034057;28;20029;-51
2023/10/16 12:11:03;;;;;;;5.00;3.35;;;29.20;99.90;;;;;;5052017;28;20025;-51
2023/10/16 12:13:30;;;;;;;6.28;3.92;;;29.20;99.90;;;;;;5051840;28;20049;-51
2023/10/16 12:15:57;;;;;;;5.47;3.60;;;29.20;99.90;;;;;;5052020;28;20033;-52
2023/10/16 12:18:26;;;;;;;5.53;3.95;;;29.20;99.90;;;;;;5052139;28;20024;-51
2023/10/16 12:20:53;;;;;;;5.03;2.90;;;29.20;99.90;;;;;;5052146;28;20031;-52
2023/10/16 12:23:23;;;;;;;5.68;3.13;;;29.30;99.90;;;;;;5051936;28;20021;-52
2023/10/16 12:25:49;;;;;;;5.00;3.83;;;29.30;99.90;;;;;;5051732;28;20059;-51
2023/10/16 12:28:15;;;;;;;6.30;2.83;;;29.30;99.90;;;;;;5051792;28;20236;-52
2023/10/16 12:30:41;;;;;;;6.75;3.38;;;29.30;99.90;;;;;;5051773;28;20032;-51
2023/10/16 12:33:07;;;;;;;4.97;3.00;;;29.30;99.90;;;;;;5051639;28;20032;-51
2023/10/16 12:35:34;;;;;;;6.30;3.55;;;29.30;99.90;;;;;;5051690;28;20040;-51
2023/10/16 12:38:07;;;;;;;;;;;29.30;99.90;;;;;;5052162;28;20067;-52
2023/10/16 12:40:37;;;;;;;5.72;3.33;;;29.30;99.90;;;;;;5051646;28;19940;-51
2023/10/16 12:43:05;;;;;;;3.85;2.95;;;29.40;99.90;;;;;;5055533;28;20021;-51
2023/10/16 12:45:32;;;;;;;5.93;2.92;;;29.40;99.90;;;;;;5055427;28;20139;-52
2023/10/16 12:47:58;;;;;;;5.10;3.30;;;29.40;99.90;;;;;;5055396;28;20029;-52
2023/10/16 12:50:25;;;;;;;4.43;2.97;;;29.40;99.90;;;;;;5055765;28;20052;-51
2023/10/16 12:53:00;;;;;;;4.30;2.67;;;29.40;99.90;;;;;;5055435;28;20036;-52
2023/10/16 12:55:26;;;;;;;5.38;2.92;;;29.40;99.90;;;;;;5055591;28;20021;-51
2023/10/16 12:57:53;;;;;;;5.82;2.92;;;29.40;99.90;;;;;;5055315;28;20040;-52
2023/10/16 13:00:21;;;;;;;6.03;2.97;;;29.50;99.90;;;;;;5055221;28;20513;-51
2023/10/16 13:02:48;;;;;;;5.30;3.00;;;29.50;99.90;;;;;;5055012;28;20049;-50
2023/10/16 13:05:18;;;;;;;;;;;29.50;99.90;;;;;;5055386;28;20400;-52
2023/10/16 13:07:45;;;;;;;4.35;2.78;;;29.50;99.90;;;;;;5055020;28;19915;-51
2023/10/16 13:10:16;;;;;;;5.82;2.72;;;29.50;99.90;;;;;;5055044;28;20123;-52
2023/10/16 13:12:43;;;;;;;5.30;2.92;;;29.50;99.90;;;;;;5054821;28;20094;-52
2023/10/16 13:15:10;;;;;;;5.50;2.97;;;29.50;99.90;;;;;;5055007;28;20021;-51
2023/10/16 13:17:37;;;;;;;5.45;3.03;;;29.50;99.90;;;;;;5054946;28;20394;-52
2023/10/16 13:20:16;;;;;;;5.07;2.72;;;29.50;99.90;;;;;;5054747;28;20591;-50
2023/10/16 13:22:49;;;;;;;6.28;3.15;;;29.50;99.90;;;;;;5054650;28;20025;-50
2023/10/16 13:25:16;;;;;;;4.93;3.00;;;29.60;99.90;;;;;;5036559;28;20481;-50
2023/10/16 13:27:44;;;;;;;;;;;29.60;99.90;;;;;;5055141;28;20029;-51
2023/10/16 13:30:11;;;;;;;4.82;2.90;;;29.60;99.90;;;;;;5054532;28;19905;-51
2023/10/16 13:32:41;;;;;;;6.20;3.20;;;29.50;99.90;;;;;;5054510;28;20572;-51
2023/10/16 13:35:12;;;;;;;4.28;2.92;;;29.60;99.90;;;;;;5054433;28;20048;-51
2023/10/16 13:37:45;;;;;;;6.07;3.00;;;29.60;99.90;;;;;;5054377;28;20025;-51
2023/10/16 13:40:21;;;;;;;5.82;2.78;;;29.50;99.90;;;;;;5054344;28;20032;-50
2023/10/16 13:42:51;;;;;;;4.37;2.70;;;29.60;99.90;;;;;;5054343;28;20023;-51
2023/10/16 13:45:18;;;;;;;5.15;3.28;;;29.50;99.90;;;;;;5054229;28;20031;-51
2023/10/16 13:47:45;;;;;;;4.47;2.60;;;29.60;99.90;;;;;;5054203;28;20082;-51
2023/10/16 13:50:15;;;;;;;6.05;2.90;;;29.60;99.90;;;;;;5054153;28;20478;-52
2023/10/16 13:52:43;;;;;;;4.18;3.05;;;29.60;99.90;;;;;;5053578;28;20500;-51
2023/10/16 13:55:13;;;;;;;3.72;2.85;;;29.60;99.90;;;;;;5054264;28;20029;-52
2023/10/16 13:57:43;;;;;;;5.47;2.95;;;29.60;99.90;;;;;;5054333;28;20029;-52
2023/10/16 14:00:12;;;;;;;4.80;2.28;;;29.60;99.90;;;;;;5053993;28;20473;-52
2023/10/16 14:02:38;;;;;;;4.50;3.13;;;29.60;99.90;;;;;;5053800;28;20048;-51
2023/10/16 14:05:07;;;;;;;4.63;3.03;;;29.60;99.90;;;;;;5036167;28;20032;-51
2023/10/16 14:07:33;;;;;;;6.15;3.45;;;29.60;99.90;;;;;;5053874;28;20037;-51
2023/10/16 14:10:02;;;;;;;3.50;2.75;;;29.60;99.90;;;;;;5053922;28;20025;-51
2023/10/16 14:12:30;;;;;;;5.13;3.28;;;29.60;99.90;;;;;;5053863;28;20108;-51
2023/10/16 14:14:56;;;;;;;3.47;2.40;;;29.50;99.90;;;;;;5053551;28;20529;-51
2023/10/16 14:17:22;;;;;;;3.90;2.95;;;29.60;99.90;;;;;;5053592;28;20116;-52
2023/10/16 14:19:48;;;;;;;4.32;2.72;;;29.60;99.90;;;;;;5053919;28;20017;-51
2023/10/16 14:22:17;;;;;;;4.50;2.88;;;29.60;99.90;;;;;;5053845;28;20029;-51
2023/10/16 14:24:43;;;;;;;4.47;2.75;;;29.60;99.90;;;;;;5053396;28;20013;-52
2023/10/16 14:27:12;;;;;;;3.17;2.60;;;29.60;99.90;;;;;;5053279;28;20124;-51
2023/10/16 14:29:44;;;;;;;4.68;2.95;;;29.60;99.90;;;;;;5053548;28;20021;-51
2023/10/16 14:32:10;;;;;;;5.05;2.83;;;29.60;99.90;;;;;;5053393;28;20481;-52
2023/10/16 14:34:36;;;;;;;3.83;2.75;;;29.60;99.90;;;;;;5053328;28;20033;-52
2023/10/16 14:37:05;;;;;;;3.92;2.95;;;29.50;99.90;;;;;;5053329;28;20025;-52
2023/10/16 14:39:31;;;;;;;6.47;2.75;;;29.60;99.90;;;;;;5053245;28;20024;-50
2023/10/16 14:42:01;;;;;;;3.88;2.45;;;29.60;99.90;;;;;;5053214;28;20020;-51
2023/10/16 14:44:28;;;;;;;4.28;2.78;;;29.60;99.90;;;;;;5053165;28;20025;-51
2023/10/16 14:46:56;;;;;;;4.23;2.83;;;29.60;99.90;;;;;;5053069;28;20033;-50
2023/10/16 14:49:25;;;;;;;4.55;3.25;;;29.60;99.90;;;;;;5052936;28;20465;-50
2023/10/16 14:51:51;;;;;;;4.30;3.00;;;29.60;99.90;;;;;;5034803;28;20040;-50
2023/10/16 14:54:21;;;;;;;6.97;3.00;;;29.60;99.90;;;;;;5053170;28;20021;-50
2023/10/16 14:56:49;;;;;;;4.63;2.83;;;29.60;99.90;;;;;;5052941;28;20044;-50